Elmora, New Jersey
Current Conditions -  °F | °C
As of 2:35 PM on Tuesday 21 Oct 2014 (Local Time) from KLDJ Reporting Station
Broken Clouds Broken Clouds  
Wind Chill: 21°   Ceiling: 6500
Heat Index: 21°   Visibility: 10mi
Dew Point: 13°   Wind: 10mph
Humidity: 60%   Direction: 130°SE
Pressure: 29.84"   Gusts: NA
Location:  40.6531°N, 74.2169°W
Report Text: KLDJ 211835Z AUTO 13009KT 10SM SCT029 SCT040 BKN065 21/13 A2984 RMK AO2 LTG DSNT S T02110130
Loading
Personal Weather Stations






























Interactive Weather Map
Tropical Storm Tracking
New forecast layout! Learn more

10-Day Weather Forecast

Advertisements
Track Severe Weather on mobile